Time;durP1;ratioP1;P1;durP2;ratioP2;P2;SDS_P1;SDS_P2;PMS_P1;PMS_P2;Temp;Humidity;BMP_temperature;BMP_pressure;BME280_temperature;BME280_humidity;BME280_pressure;Samples;Min_cycle;Max_cycle;Signal;HPM_P1;HPM_P2
2023/10/04 00:00:42;;;;;;;5.17;2.97;;;;;;;13.56;100.00;102099.19;2071220;28;20236;-65
2023/10/04 00:01:43;;;;;;;6.17;2.73;;;;;;;13.54;100.00;102105.19;2071429;28;20846;-65
2023/10/04 00:02:48;;;;;;;5.80;2.60;;;;;;;13.54;100.00;102098.81;2071061;28;20460;-65
2023/10/04 00:03:50;;;;;;;5.80;2.77;;;;;;;13.48;100.00;102101.25;2071416;28;20632;-65
2023/10/04 00:04:51;;;;;;;7.50;3.23;;;;;;;13.46;100.00;102100.09;2071368;28;20524;-65
2023/10/04 00:05:52;;;;;;;8.70;3.30;;;;;;;13.02;100.00;102036.22;2070741;28;20451;-65
2023/10/04 00:06:52;;;;;;;4.67;2.97;;;;;;;13.41;100.00;102095.00;2070693;28;20181;-65
2023/10/04 00:07:55;;;;;;;8.07;3.23;;;;;;;13.38;100.00;102088.25;2071585;28;20181;-65
2023/10/04 00:08:56;;;;;;;8.33;3.17;;;;;;;13.38;100.00;102101.41;2070801;28;20206;-65
2023/10/04 00:09:56;;;;;;;8.83;3.47;;;;;;;13.37;100.00;102089.47;2071134;28;20450;-65
2023/10/04 00:10:57;;;;;;;5.23;3.17;;;;;;;13.39;100.00;102097.41;2071211;28;20675;-65
2023/10/04 00:11:59;;;;;;;6.27;2.50;;;;;;;13.39;100.00;102097.41;2071193;28;20297;-65
2023/10/04 00:13:00;;;;;;;5.47;2.73;;;;;;;13.39;100.00;102095.44;2070728;28;20198;-65
2023/10/04 00:14:00;;;;;;;9.53;2.90;;;;;;;13.37;100.00;102089.47;2071386;28;20433;-65
2023/10/04 00:15:01;;;;;;;4.70;2.80;;;;;;;13.07;100.00;102044.13;2072429;28;20254;-65
2023/10/04 00:16:03;;;;;;;8.40;3.47;;;;;;;13.37;100.00;102097.06;2072428;28;20175;-65
2023/10/04 00:17:04;;;;;;;4.60;3.00;;;;;;;13.37;100.00;102091.50;2072223;28;20433;-65
2023/10/04 00:18:04;;;;;;;9.50;2.50;;;;;;;13.25;100.00;102066.94;2072224;28;20939;-65
2023/10/04 00:19:06;;;;;;;5.17;2.63;;;;;;;13.23;100.00;102075.72;2069213;28;20220;-65
2023/10/04 00:20:09;;;;;;;6.37;2.93;;;;;;;13.35;100.00;102091.09;2071411;28;20200;-65
2023/10/04 00:21:10;;;;;;;5.47;2.60;;;;;;;13.24;100.00;102082.88;2071302;28;20565;-65
2023/10/04 00:22:11;;;;;;;5.37;2.80;;;;;;;13.07;100.00;102063.59;2071274;28;20439;-65
2023/10/04 00:23:13;;;;;;;6.53;3.27;;;;;;;13.27;100.00;102093.16;2071171;28;20478;-65
2023/10/04 00:24:13;;;;;;;6.60;3.30;;;;;;;13.21;100.00;102092.06;2071353;28;20426;-65
2023/10/04 00:25:21;;;;;;;8.53;3.53;;;;;;;13.12;100.00;102096.53;2071781;28;20419;-65
2023/10/04 00:26:21;;;;;;;7.23;3.03;;;;;;;13.08;100.00;102090.22;2071571;28;20175;-65
2023/10/04 00:27:22;;;;;;;6.03;2.53;;;;;;;13.07;100.00;102091.44;2071858;28;20482;-65
2023/10/04 00:28:22;;;;;;;5.37;2.67;;;;;;;13.06;100.00;102095.41;2071743;28;20211;-65
2023/10/04 00:29:23;;;;;;;7.00;2.70;;;;;;;13.03;100.00;102088.69;2071395;28;20194;-65
2023/10/04 00:30:26;;;;;;;7.20;3.20;;;;;;;13.05;100.00;102096.59;2071770;28;20198;-65
2023/10/04 00:31:26;;;;;;;6.03;3.47;;;;;;;12.92;100.00;102076.06;2071566;28;20215;-65
2023/10/04 00:32:26;;;;;;;5.97;2.93;;;;;;;12.97;100.00;102081.97;2070916;28;20444;-65
2023/10/04 00:33:28;;;;;;;6.83;2.87;;;;;;;13.01;100.00;102099.44;2071182;28;20263;-65
2023/10/04 00:34:29;;;;;;;6.17;3.33;;;;;;;13.01;100.00;102093.88;2072833;28;20247;-65
2023/10/04 00:35:30;;;;;;;6.47;3.37;;;;;;;12.88;100.00;102084.44;2073135;28;20952;-65
2023/10/04 00:36:31;;;;;;;4.60;2.80;;;;;;;12.91;100.00;102091.94;2072536;28;20203;-65
2023/10/04 00:37:31;;;;;;;4.40;2.63;;;;;;;12.90;100.00;102090.38;2073160;28;20539;-66
2023/10/04 00:38:32;;;;;;;5.33;2.60;;;;;;;12.87;100.00;102096.75;2073400;28;20241;-65
2023/10/04 00:39:34;;;;;;;7.03;3.27;;;;;;;12.87;100.00;102091.19;2072934;28;20761;-65
2023/10/04 00:40:37;;;;;;;6.40;3.17;;;;;;;12.41;100.00;102026.88;2072563;28;20210;-65
2023/10/04 00:41:40;;;;;;;6.73;3.00;;;;;;;12.63;100.00;102058.06;2072653;28;20811;-65
2023/10/04 00:42:41;;;;;;;5.00;3.07;;;;;;;12.86;100.00;102091.63;2073230;28;20425;-65
2023/10/04 00:43:51;;;;;;;5.83;2.53;;;;;;;12.82;100.00;102090.88;2073452;28;20414;-65
2023/10/04 00:44:51;;;;;;;5.37;2.90;;;;;;;12.78;100.00;102093.69;2065026;28;20191;-65
2023/10/04 00:45:53;;;;;;;5.47;2.40;;;;;;;12.78;100.00;102085.34;2071993;28;20442;-65
2023/10/04 00:46:53;;;;;;;11.10;3.43;;;;;;;12.77;100.00;102092.09;2072415;28;20682;-65
2023/10/04 00:47:58;;;;;;;6.03;3.30;;;;;;;12.72;100.00;102087.00;2073202;28;20824;-65
2023/10/04 00:48:59;;;;;;;5.53;2.93;;;;;;;12.46;100.00;102048.66;2072377;28;20316;-65
2023/10/04 00:50:14;;;;;;;7.07;3.80;;;;;;;12.68;100.00;102093.78;2073291;28;20445;-65
2023/10/04 00:51:16;;;;;;;6.40;3.07;;;;;;;12.21;100.00;102017.53;2069626;28;20197;-65
2023/10/04 00:52:16;;;;;;;5.03;2.80;;;;;;;12.67;100.00;102090.22;2067428;28;20814;-65
2023/10/04 00:53:22;;;;;;;6.37;3.20;;;;;;;12.66;100.00;102088.63;2071525;28;20445;-65
2023/10/04 00:54:22;;;;;;;4.87;3.30;;;;;;;12.65;100.00;102087.03;2065877;28;20166;-65
2023/10/04 00:55:24;;;;;;;6.57;3.70;;;;;;;12.65;100.00;102084.25;2073150;28;20458;-65
2023/10/04 00:56:24;;;;;;;6.67;3.50;;;;;;;12.66;100.00;102087.84;2064429;28;20198;-65
2023/10/04 00:57:25;;;;;;;6.87;3.87;;;;;;;12.64;100.00;102091.03;2071824;28;20468;-65
2023/10/04 00:58:28;;;;;;;5.17;3.17;;;;;;;12.67;100.00;102089.41;2072985;28;20197;-65
2023/10/04 00:59:28;;;;;;;7.40;3.13;;;;;;;12.44;100.00;102059.41;2073269;28;20205;-65
2023/10/04 01:00:29;;;;;;;5.83;3.30;;;;;;;12.69;100.00;102084.22;2073236;28;20525;-65
2023/10/04 01:01:31;;;;;;;6.63;3.73;;;;;;;12.71;100.00;102087.41;2072741;28;20240;-65
2023/10/04 01:02:33;;;;;;;6.17;3.10;;;;;;;12.73;100.00;102087.75;2073110;28;20259;-65
2023/10/04 01:03:37;;;;;;;8.07;3.80;;;;;;;12.74;100.00;102092.91;2073134;28;20458;-65
2023/10/04 01:04:37;;;;;;;7.17;3.50;;;;;;;12.76;100.00;102090.50;2064854;28;20794;-65
2023/10/04 01:05:44;;;;;;;6.27;3.57;;;;;;;12.77;100.00;102092.09;2072148;28;20511;-65
2023/10/04 01:06:45;;;;;;;11.03;4.23;;;;;;;12.78;100.00;102092.88;2072279;28;20208;-65
2023/10/04 01:07:48;;;;;;;7.97;3.77;;;;;;;12.79;100.00;102086.09;2072950;28;20524;-65
2023/10/04 01:08:50;;;;;;;9.77;4.20;;;;;;;12.79;100.00;102081.34;2072966;28;20206;-65
2023/10/04 01:09:50;;;;;;;6.70;3.47;;;;;;;12.82;100.00;102088.84;2072975;28;20537;-65
2023/10/04 01:10:54;;;;;;;5.13;3.13;;;;;;;12.42;100.00;102022.09;2072793;28;21037;-65
2023/10/04 01:11:54;;;;;;;6.80;3.80;;;;;;;12.82;100.00;102088.84;2073134;28;20180;-65
2023/10/04 01:12:56;;;;;;;8.00;3.93;;;;;;;12.82;100.00;102088.84;2073124;28;20410;-65
2023/10/04 01:14:08;;;;;;;7.33;3.97;;;;;;;12.84;100.00;102086.47;2073125;28;20180;-65
2023/10/04 01:16:41;;;;;;;7.43;3.97;;;;;;;12.84;100.00;102080.91;2063595;28;20963;-65
2023/10/04 01:17:42;;;;;;;8.53;4.23;;;;;;;12.82;100.00;102088.09;2069914;28;20887;-65
2023/10/04 01:18:44;;;;;;;7.53;4.13;;;;;;;12.85;100.00;102084.44;2072580;28;20194;-65
2023/10/04 01:19:45;;;;;;;11.27;4.77;;;;;;;12.85;100.00;102085.25;2073059;28;20190;-65
2023/10/04 01:20:46;;;;;;;7.10;4.17;;;;;;;12.85;100.00;102085.25;2072973;28;20503;-65
2023/10/04 01:21:46;;;;;;;10.47;4.43;;;;;;;12.65;100.00;102061.22;2073008;28;20704;-65
2023/10/04 01:22:47;;;;;;;7.47;3.77;;;;;;;12.82;100.00;102083.28;2072747;28;20900;-65
2023/10/04 01:23:47;;;;;;;6.17;3.60;;;;;;;12.83;100.00;102081.31;2069058;28;20254;-65
2023/10/04 01:24:48;;;;;;;6.47;3.70;;;;;;;12.83;100.00;102084.88;2067391;28;20647;-65
2023/10/04 01:25:49;;;;;;;8.23;4.30;;;;;;;12.84;100.00;102083.69;2072813;28;20258;-65
2023/10/04 01:26:50;;;;;;;7.57;4.10;;;;;;;12.84;100.00;102080.91;2073097;28;20417;-65
2023/10/04 01:27:51;;;;;;;12.07;4.50;;;;;;;12.80;100.00;102077.34;2065027;28;20273;-65
2023/10/04 01:28:52;;;;;;;8.03;4.10;;;;;;;12.83;100.00;102087.66;2071875;28;20445;-65
2023/10/04 01:29:53;;;;;;;7.97;3.90;;;;;;;12.80;100.00;102088.47;2072570;28;20201;-65
2023/10/04 01:30:55;;;;;;;5.30;3.17;;;;;;;12.80;100.00;102082.91;2072966;28;20502;-65
2023/10/04 01:31:57;;;;;;;8.87;4.57;;;;;;;12.80;100.00;102082.16;2072451;28;20674;-65
2023/10/04 01:33:03;;;;;;;5.37;3.00;;;;;;;12.32;100.00;102017.44;2072326;28;20435;-65
2023/10/04 01:34:05;;;;;;;5.73;3.13;;;;;;;12.78;100.00;102084.53;2072678;28;20479;-65
2023/10/04 01:35:06;;;;;;;8.00;4.10;;;;;;;12.53;100.00;102051.41;2072486;28;20476;-65
2023/10/04 01:36:06;;;;;;;6.63;3.70;;;;;;;12.75;100.00;102085.38;2072827;28;20859;-65
2023/10/04 01:37:07;;;;;;;7.60;3.73;;;;;;;12.76;100.00;102089.72;2065496;28;20544;-65
2023/10/04 01:38:07;;;;;;;10.13;4.10;;;;;;;12.76;100.00;102076.59;2071221;28;20233;-65
2023/10/04 01:39:15;;;;;;;4.93;2.87;;;;;;;12.78;100.00;102079.78;2073024;28;20210;-65
2023/10/04 01:40:18;;;;;;;6.03;3.73;;;;;;;12.79;100.00;102077.75;2072599;28;20244;-65
2023/10/04 01:41:19;;;;;;;7.00;3.63;;;;;;;12.81;100.00;102081.72;2071785;28;20571;-65
2023/10/04 01:42:20;;;;;;;6.30;3.70;;;;;;;12.81;100.00;102078.16;2072621;28;20433;-65
2023/10/04 01:43:24;;;;;;;9.57;4.47;;;;;;;12.82;100.00;102074.16;2067194;28;20229;-65
2023/10/04 01:44:24;;;;;;;7.53;3.37;;;;;;;12.80;100.00;102071.03;2073427;28;20862;-65
2023/10/04 01:45:25;;;;;;;6.73;3.90;;;;;;;12.75;100.00;102075.03;2072020;28;20457;-65
2023/10/04 01:46:25;;;;;;;6.13;3.73;;;;;;;12.67;100.00;102062.41;2072517;28;20183;-65
2023/10/04 01:47:26;;;;;;;5.47;3.70;;;;;;;12.72;100.00;102075.06;2072478;28;20256;-65
2023/10/04 01:48:30;;;;;;;6.97;3.83;;;;;;;12.73;100.00;102080.22;2072039;28;20664;-65
2023/10/04 01:49:32;;;;;;;7.47;3.80;;;;;;;12.75;100.00;102075.03;2072142;28;20204;-65
2023/10/04 01:50:33;;;;;;;5.60;3.50;;;;;;;12.75;100.00;102072.25;2072799;28;20529;-65
2023/10/04 01:51:34;;;;;;;7.73;3.90;;;;;;;12.53;100.00;102043.06;2072960;28;20464;-65
2023/10/04 01:52:36;;;;;;;6.93;3.77;;;;;;;12.69;100.00;102076.69;2073079;28;20250;-65
2023/10/04 01:53:37;;;;;;;7.30;3.83;;;;;;;12.72;100.00;102075.06;2072760;28;20187;-65
2023/10/04 01:54:38;;;;;;;6.07;3.60;;;;;;;12.70;100.00;102074.69;2072949;28;20421;-65
2023/10/04 01:55:40;;;;;;;6.10;3.53;;;;;;;12.73;100.00;102073.84;2072780;28;20446;-65
2023/10/04 01:56:41;;;;;;;7.60;4.60;;;;;;;12.68;100.00;102065.94;2072645;28;20831;-65
2023/10/04 01:57:43;;;;;;;7.10;3.93;;;;;;;12.74;100.00;102075.44;2072671;28;20472;-65
2023/10/04 01:58:48;;;;;;;6.57;3.53;;;;;;;12.74;100.00;102073.44;2072353;28;20236;-66
2023/10/04 01:59:48;;;;;;;6.53;3.67;;;;;;;12.75;100.00;102068.69;2072996;28;20445;-66
2023/10/04 02:00:53;;;;;;;6.67;3.70;;;;;;;12.73;100.00;102071.88;2072653;28;20427;-66
2023/10/04 02:01:57;;;;;;;7.43;3.93;;;;;;;12.78;100.00;102076.19;2073135;28;20214;-65
2023/10/04 02:02:57;;;;;;;6.63;3.50;;;;;;;12.78;100.00;102071.44;2072822;28;20469;-65
2023/10/04 02:04:03;;;;;;;7.30;3.93;;;;;;;12.78;100.00;102077.00;2072736;28;20516;-65
2023/10/04 02:05:05;;;;;;;9.07;3.93;;;;;;;12.78;100.00;102077.00;2072873;28;20172;-65
2023/10/04 02:06:08;;;;;;;7.53;3.83;;;;;;;12.79;100.00;102078.56;2072022;28;20847;-65
2023/10/04 02:07:08;;;;;;;7.97;4.00;;;;;;;12.80;100.00;102071.78;2072176;28;20469;-65
2023/10/04 02:08:09;;;;;;;6.87;3.83;;;;;;;12.81;100.00;102073.38;2072538;28;20461;-65
2023/10/04 02:09:10;;;;;;;7.77;3.87;;;;;;;12.83;100.00;102076.53;2072538;28;20207;-65
2023/10/04 02:10:17;;;;;;;7.70;3.67;;;;;;;12.84;100.00;102074.53;2072071;28;20199;-65
2023/10/04 02:11:21;;;;;;;7.53;3.60;;;;;;;12.86;100.00;102072.16;2072484;28;20467;-65
2023/10/04 02:12:22;;;;;;;7.63;3.80;;;;;;;12.86;100.00;102072.91;2070238;28;20939;-65
2023/10/04 02:13:25;;;;;;;6.47;3.40;;;;;;;12.84;100.00;102080.09;2065865;28;20880;-65
2023/10/04 02:14:25;;;;;;;5.30;3.20;;;;;;;12.82;100.00;102066.59;2072483;28;20663;-65
2023/10/04 02:15:26;;;;;;;8.80;3.53;;;;;;;12.82;100.00;102074.16;2072936;28;20464;-65
2023/10/04 02:16:26;;;;;;;6.20;3.80;;;;;;;12.81;100.00;102062.25;2072135;28;20200;-65
2023/10/04 02:17:27;;;;;;;7.30;3.40;;;;;;;12.73;100.00;102065.50;2072269;28;20760;-65
2023/10/04 02:18:27;;;;;;;8.33;4.57;;;;;;;12.79;100.00;102069.41;2072565;28;20229;-65
2023/10/04 02:19:28;;;;;;;6.97;3.50;;;;;;;12.79;100.00;102069.41;2072427;28;20652;-65
2023/10/04 02:20:32;;;;;;;7.30;3.80;;;;;;;12.35;100.00;101997.94;2072348;28;20178;-65
2023/10/04 02:21:33;;;;;;;9.63;3.80;;;;;;;12.80;100.00;102074.56;2072322;28;20182;-65
2023/10/04 02:22:34;;;;;;;7.50;3.57;;;;;;;12.80;100.00;102071.78;2072434;28;20487;-65
2023/10/04 02:23:35;;;;;;;6.10;3.40;;;;;;;12.79;100.00;102073.00;2072576;28;20513;-65
2023/10/04 02:24:38;;;;;;;5.80;3.43;;;;;;;12.82;100.00;102065.81;2072560;28;20927;-65
2023/10/04 02:25:39;;;;;;;6.43;3.50;;;;;;;12.84;100.00;102074.53;2071820;28;20208;-65
2023/10/04 02:26:41;;;;;;;11.27;3.87;;;;;;;12.84;100.00;102066.19;2072250;28;20439;-65
2023/10/04 02:27:42;;;;;;;7.43;3.83;;;;;;;12.83;100.00;102070.97;2072467;28;20201;-65
2023/10/04 02:28:45;;;;;;;6.80;3.20;;;;;;;12.76;100.00;102067.47;2072670;28;20435;-65
2023/10/04 02:29:47;;;;;;;8.67;4.20;;;;;;;12.75;100.00;102071.47;2072348;28;20841;-65
2023/10/04 02:30:47;;;;;;;8.40;4.10;;;;;;;12.76;100.00;102070.25;2072616;28;20942;-65
2023/10/04 02:31:48;;;;;;;5.50;3.00;;;;;;;12.76;100.00;102064.69;2071857;28;20825;-65
2023/10/04 02:32:50;;;;;;;7.07;3.53;;;;;;;12.77;100.00;102069.84;2072334;28;20717;-66
2023/10/04 02:33:52;;;;;;;4.63;3.20;;;;;;;12.74;100.00;102058.72;2065065;28;20185;-65
2023/10/04 02:34:53;;;;;;;5.00;2.83;;;;;;;12.71;100.00;102054.78;2070078;28;20483;-65
2023/10/04 02:35:53;;;;;;;9.57;3.73;;;;;;;12.77;100.00;102052.38;2072110;28;20446;-65
2023/10/04 02:36:55;;;;;;;6.23;3.57;;;;;;;12.77;100.00;102064.28;2071603;28;20270;-65
2023/10/04 02:37:59;;;;;;;7.83;4.03;;;;;;;12.75;100.00;102054.78;2071809;28;20282;-65
2023/10/04 02:39:00;;;;;;;5.73;3.50;;;;;;;12.50;100.00;102015.28;2071549;28;20466;-65
2023/10/04 02:40:14;;;;;;;6.20;3.43;;;;;;;12.77;100.00;102067.06;2071026;28;20488;-65
2023/10/04 02:41:15;;;;;;;9.27;4.37;;;;;;;12.78;100.00;102054.75;2072314;28;20555;-65
2023/10/04 02:42:21;;;;;;;6.60;3.73;;;;;;;12.71;100.00;102065.91;2072402;28;20464;-65
2023/10/04 02:43:25;;;;;;;7.00;3.53;;;;;;;12.72;100.00;102063.94;2072383;28;20162;-65
2023/10/04 02:44:25;;;;;;;6.00;3.23;;;;;;;12.73;100.00;102063.53;2072436;28;20429;-65
2023/10/04 02:45:29;;;;;;;6.73;3.30;;;;;;;12.72;100.00;102066.72;2072203;28;20936;-65
2023/10/04 02:46:29;;;;;;;5.30;3.43;;;;;;;12.71;100.00;102062.34;2071460;28;20182;-65
2023/10/04 02:47:29;;;;;;;9.03;3.33;;;;;;;12.60;100.00;102062.44;2071868;28;20529;-65
2023/10/04 02:48:32;;;;;;;8.13;3.80;;;;;;;12.64;100.00;102060.44;2072662;28;20190;-65
2023/10/04 02:49:39;;;;;;;11.87;4.23;;;;;;;12.67;100.00;102062.41;2071937;28;20232;-65
2023/10/04 02:50:40;;;;;;;10.73;3.83;;;;;;;12.65;100.00;102064.78;2072212;28;20424;-65
2023/10/04 02:51:44;;;;;;;10.77;4.17;;;;;;;12.62;100.00;102062.84;2072012;28;20416;-65
2023/10/04 02:52:55;;;;;;;10.30;4.60;;;;;;;12.62;100.00;102068.41;2071775;28;20423;-65
2023/10/04 02:53:55;;;;;;;14.60;4.70;;;;;;;12.63;100.00;102066.41;2072076;28;20472;-65
2023/10/04 02:54:56;;;;;;;9.27;4.47;;;;;;;12.66;100.00;102066.34;2072037;28;20452;-65
2023/10/04 02:55:58;;;;;;;10.17;3.63;;;;;;;12.64;100.00;102060.44;2071932;28;20419;-65
2023/10/04 02:57:00;;;;;;;8.50;3.90;;;;;;;12.66;100.00;102069.13;2071271;28;20193;-65
2023/10/04 02:58:00;;;;;;;8.77;3.70;;;;;;;12.68;100.00;102063.16;2072214;28;21086;-65
2023/10/04 02:59:01;;;;;;;6.00;3.07;;;;;;;12.65;100.00;102052.88;2071979;28;21035;-65
2023/10/04 03:00:12;;;;;;;8.57;3.47;;;;;;;12.68;100.00;102058.41;2072014;28;20196;-65
2023/10/04 03:01:26;;;;;;;11.30;4.30;;;;;;;12.48;100.00;102023.22;2072117;28;20179;-65
2023/10/04 03:02:27;;;;;;;6.40;3.30;;;;;;;12.66;100.00;102063.56;2071946;28;20537;-65
2023/10/04 03:03:27;;;;;;;5.97;3.40;;;;;;;12.67;100.00;102058.81;2072013;28;20467;-65
2023/10/04 03:04:28;;;;;;;5.30;3.30;;;;;;;12.66;100.00;102058.00;2068805;28;20275;-65
2023/10/04 03:05:29;;;;;;;7.73;3.20;;;;;;;12.67;100.00;102061.59;2065677;28;20221;-65
2023/10/04 03:06:31;;;;;;;7.70;3.43;;;;;;;12.67;100.00;102065.19;2070799;28;20259;-65
2023/10/04 03:07:33;;;;;;;9.60;3.93;;;;;;;12.67;100.00;102065.19;2072337;28;20184;-65
2023/10/04 03:08:34;;;;;;;10.37;3.93;;;;;;;12.67;100.00;102065.19;2072208;28;20446;-65
2023/10/04 03:09:37;;;;;;;7.87;3.00;;;;;;;12.66;100.00;102065.59;2072109;28;20537;-65
2023/10/04 03:10:38;;;;;;;6.20;3.40;;;;;;;12.66;100.00;102068.38;2072091;28;20451;-65
2023/10/04 03:11:42;;;;;;;6.43;3.33;;;;;;;12.65;100.00;102064.78;2072406;28;20467;-66
2023/10/04 03:12:42;;;;;;;8.40;3.50;;;;;;;12.65;100.00;102070.34;2071538;28;21029;-66
2023/10/04 03:13:47;;;;;;;6.20;2.73;;;;;;;12.41;100.00;102037.22;2071918;28;20805;-66
2023/10/04 03:14:47;;;;;;;8.67;3.90;;;;;;;12.65;100.00;102064.00;2065085;28;20184;-65
2023/10/04 03:15:52;;;;;;;7.97;3.67;;;;;;;12.66;100.00;102068.38;2070241;28;20966;-65
2023/10/04 03:16:52;;;;;;;8.23;3.70;;;;;;;12.65;100.00;102070.34;2065572;28;20183;-65
2023/10/04 03:17:57;;;;;;;6.60;3.37;;;;;;;12.64;100.00;102074.34;2068732;28;20446;-65
2023/10/04 03:18:59;;;;;;;7.90;3.97;;;;;;;12.60;100.00;102059.66;2071951;28;20234;-67
2023/10/04 03:20:00;;;;;;;5.97;3.60;;;;;;;12.64;100.00;102065.19;2072166;28;20429;-66
2023/10/04 03:22:03;;;;;;;8.90;3.53;;;;;;;12.21;100.00;102003.66;2072257;28;20426;-66
2023/10/04 03:23:12;;;;;;;8.13;3.17;;;;;;;12.43;100.00;102041.16;2071989;28;20188;-66
2023/10/04 03:24:14;;;;;;;10.00;3.80;;;;;;;12.62;100.00;102065.63;2072019;28;20401;-66
2023/10/04 03:25:18;;;;;;;5.67;3.43;;;;;;;12.62;100.00;102073.97;2072433;28;20426;-66
2023/10/04 03:26:19;;;;;;;5.47;3.33;;;;;;;12.60;100.00;102065.22;2071662;28;20436;-66
2023/10/04 03:27:21;;;;;;;6.53;3.23;;;;;;;12.61;100.00;102068.81;2072073;28;20451;-66
2023/10/04 03:28:26;;;;;;;6.67;3.63;;;;;;;12.63;100.00;102071.97;2072284;28;20594;-66
2023/10/04 03:29:28;;;;;;;6.07;3.43;;;;;;;12.61;100.00;102072.38;2071936;28;20454;-66
2023/10/04 03:30:30;;;;;;;7.20;3.17;;;;;;;12.57;100.00;102071.63;2072234;28;20529;-66
2023/10/04 03:31:33;;;;;;;8.03;3.87;;;;;;;12.13;100.00;102002.13;2071746;28;20452;-66
2023/10/04 03:32:35;;;;;;;5.50;3.07;;;;;;;12.61;100.00;102074.38;2072497;28;20440;-66
2023/10/04 03:33:35;;;;;;;7.57;3.23;;;;;;;12.40;100.00;102044.75;2071681;28;20853;-66
2023/10/04 03:34:38;;;;;;;5.23;3.20;;;;;;;12.53;100.00;102065.31;2072170;28;20477;-66
2023/10/04 03:35:43;;;;;;;6.27;3.07;;;;;;;12.59;100.00;102072.00;2072851;28;20669;-66
2023/10/04 03:36:46;;;;;;;5.47;3.03;;;;;;;12.60;100.00;102075.59;2071720;28;20850;-66
2023/10/04 03:37:58;;;;;;;5.07;3.13;;;;;;;12.60;100.00;102075.59;2072040;28;20480;-66
2023/10/04 03:38:58;;;;;;;6.03;3.47;;;;;;;12.59;100.00;102072.00;2072095;28;20494;-66
2023/10/04 03:40:00;;;;;;;10.03;3.53;;;;;;;12.59;100.00;102065.63;2072300;28;20436;-66
2023/10/04 03:41:03;;;;;;;5.53;3.10;;;;;;;12.57;100.00;102076.41;2072037;28;20201;-66
2023/10/04 03:42:07;;;;;;;7.33;3.30;;;;;;;12.52;100.00;102062.94;2072580;28;20972;-66
2023/10/04 03:43:08;;;;;;;8.07;3.80;;;;;;;12.54;100.00;102072.44;2072175;28;20432;-66
2023/10/04 03:44:09;;;;;;;6.60;3.43;;;;;;;12.55;100.00;102076.78;2072482;28;20601;-66
2023/10/04 03:45:17;;;;;;;9.17;3.80;;;;;;;12.31;100.00;102047.25;2072515;28;20317;-66
2023/10/04 03:46:18;;;;;;;6.80;3.23;;;;;;;12.53;100.00;102086.75;2064053;28;20410;-66
2023/10/04 03:47:20;;;;;;;11.00;4.30;;;;;;;12.48;100.00;102076.88;2071575;28;20549;-66
2023/10/04 03:48:23;;;;;;;8.90;4.00;;;;;;;12.32;100.00;102064.69;2071415;28;20455;-66
2023/10/04 03:49:25;;;;;;;8.00;3.17;;;;;;;12.47;100.00;102080.06;2071955;28;20443;-66
2023/10/04 03:50:27;;;;;;;12.43;3.80;;;;;;;12.41;100.00;102084.47;2067059;28;20475;-66
2023/10/04 03:51:29;;;;;;;12.73;3.83;;;;;;;12.39;100.00;102084.09;2067422;28;20428;-66
2023/10/04 03:52:31;;;;;;;13.50;3.87;;;;;;;12.33;100.00;102080.16;2068931;28;20570;-66
2023/10/04 03:53:31;;;;;;;5.93;3.03;;;;;;;12.36;100.00;102082.13;2065315;28;20472;-67
2023/10/04 03:54:33;;;;;;;5.47;3.10;;;;;;;12.37;100.00;102081.72;2071971;28;20428;-67
2023/10/04 03:55:33;;;;;;;9.23;3.70;;;;;;;12.38;100.00;102065.81;2072140;28;20276;-67
2023/10/04 03:56:34;;;;;;;5.40;3.20;;;;;;;12.39;100.00;102082.09;2065329;28;20445;-67
2023/10/04 03:57:34;;;;;;;10.20;3.50;;;;;;;12.40;100.00;102080.13;2069610;28;20206;-67
2023/10/04 03:58:35;;;;;;;6.50;3.50;;;;;;;12.43;100.00;102080.09;2069413;28;20278;-60
2023/10/04 03:59:35;;;;;;;3.27;2.20;;;;;;;13.32;100.00;102083.59;2070841;28;21038;-60
2023/10/04 04:00:36;;;;;;;3.20;2.10;;;;;;;14.09;100.00;102052.63;2070169;28;20502;-60
2023/10/04 04:01:37;;;;;;;5.27;2.83;;;;;;;14.53;100.00;102091.41;2068702;28;20210;-61
2023/10/04 04:02:41;;;;;;;6.73;3.20;;;;;;;14.81;100.00;102104.84;2069839;28;20185;-61
2023/10/04 04:03:43;;;;;;;7.60;2.70;;;;;;;14.77;100.00;102103.34;2070121;28;20419;-62
2023/10/04 04:04:43;;;;;;;7.20;3.33;;;;;;;14.91;100.00;102098.28;2070143;28;20659;-61
2023/10/04 04:05:44;;;;;;;8.87;2.80;;;;;;;15.23;100.00;102108.88;2069226;28;20482;-62
2023/10/04 04:06:44;;;;;;;4.93;2.80;;;;;;;15.62;100.00;102114.50;2065271;28;20228;-60
2023/10/04 04:07:45;;;;;;;7.07;2.97;;;;;;;15.80;100.00;102118.47;2066133;28;20293;-60
2023/10/04 04:08:49;;;;;;;8.03;3.80;;;;;;;16.13;100.00;102116.56;2069735;28;20659;-60
2023/10/04 04:09:50;;;;;;;7.57;3.33;;;;;;;16.46;100.00;102106.97;2071359;28;20205;-60
2023/10/04 04:10:50;;;;;;;4.83;2.83;;;;;;;16.64;100.00;102063.31;2071430;28;20458;-61
2023/10/04 04:11:52;;;;;;;6.10;3.13;;;;;;;17.39;100.00;102109.75;2068392;28;20192;-61
2023/10/04 04:12:54;;;;;;;4.33;2.60;;;;;;;17.66;100.00;102118.56;2071083;28;20196;-61
2023/10/04 04:13:57;;;;;;;8.13;2.90;;;;;;;17.91;100.00;102121.41;2071907;28;20416;-62
2023/10/04 04:14:58;;;;;;;12.73;3.90;;;;;;;18.13;100.00;102108.28;2071370;28;20441;-62
2023/10/04 04:15:59;;;;;;;8.43;3.43;;;;;;;18.25;100.00;102111.09;2071437;28;20521;-57
2023/10/04 04:16:59;;;;;;;6.20;3.33;;;;;;;18.37;100.00;102112.38;2065893;28;20998;-61
2023/10/04 04:18:03;;;;;;;8.33;3.60;;;;;;;18.50;100.00;102099.09;2067390;28;20202;-61
2023/10/04 04:19:06;;;;;;;7.87;3.73;;;;;;;18.68;100.00;102088.84;2070953;28;20748;-60
2023/10/04 04:20:16;;;;;;;7.13;3.33;;;;;;;18.86;100.00;102083.41;2071142;28;20455;-64
2023/10/04 04:21:16;;;;;;;7.73;3.20;;;;;;;19.03;100.00;102089.66;2067985;28;20506;-59
2023/10/04 04:22:23;;;;;;;13.73;3.70;;;;;;;19.11;100.00;102082.50;2066440;28;21001;-60
2023/10/04 04:23:24;;;;;;;7.50;3.10;;;;;;;19.16;100.00;102079.91;2071349;28;20169;-60
2023/10/04 04:24:27;;;;;;;8.87;3.00;;;;;;;19.23;100.00;102068.44;2070708;28;20497;-60
2023/10/04 04:25:28;;;;;;;6.43;3.10;;;;;;;19.31;100.00;102081.00;2071851;28;20247;-60
2023/10/04 04:26:29;;;;;;;6.07;2.80;;;;;;;19.41;100.00;102082.63;2069829;28;20513;-60
2023/10/04 04:27:30;;;;;;;9.97;3.47;;;;;;;19.45;100.00;102077.66;2070059;28;20665;-60
2023/10/04 04:28:30;;;;;;;4.73;2.93;;;;;;;19.49;100.00;102077.53;2071246;28;20200;-60
2023/10/04 04:29:31;;;;;;;9.80;3.40;;;;;;;19.57;100.00;102078.81;2070773;28;20197;-60
2023/10/04 04:30:32;;;;;;;6.43;3.70;;;;;;;19.61;100.00;102079.47;2070865;28;20193;-60
2023/10/04 04:31:32;;;;;;;6.33;3.10;;;;;;;19.65;100.00;102083.72;2068924;28;20432;-60
2023/10/04 04:32:33;;;;;;;7.53;3.73;;;;;;;19.29;100.00;102026.47;2063925;28;20186;-62
2023/10/04 04:33:34;;;;;;;4.87;3.00;;;;;;;19.67;100.00;102078.44;2071487;28;20204;-60
2023/10/04 04:34:35;;;;;;;8.13;3.40;;;;;;;19.70;100.00;102079.53;2072017;28;20252;-61
2023/10/04 04:36:46;;;;;;;9.73;4.93;;;;;;;19.71;100.00;102081.09;2069420;28;20280;-60
2023/10/04 04:37:47;;;;;;;11.87;5.97;;;;;;;19.51;100.00;102083.47;2070363;28;20456;-60
2023/10/04 04:38:47;;;;;;;7.67;4.93;;;;;;;19.30;100.00;102087.06;2071397;28;20480;-60
2023/10/04 04:39:47;;;;;;;10.20;4.90;;;;;;;19.08;100.00;102086.25;2070435;28;20189;-60
2023/10/04 04:40:52;;;;;;;11.00;4.90;;;;;;;18.80;100.00;102078.81;2069210;28;20205;-60
2023/10/04 04:41:52;;;;;;;11.47;5.30;;;;;;;18.61;100.00;102080.66;2070327;28;20655;-60
2023/10/04 04:42:53;;;;;;;7.13;4.57;;;;;;;18.40;100.00;102081.38;2071835;28;20937;-60
2023/10/04 04:43:55;;;;;;;13.80;5.13;;;;;;;18.17;100.00;102079.69;2072301;28;20689;-60
2023/10/04 04:44:56;;;;;;;12.27;5.87;;;;;;;17.94;100.00;102080.00;2062797;28;20534;-60
2023/10/04 04:45:57;;;;;;;14.20;6.13;;;;;;;17.73;100.00;102083.47;2067451;28;20459;-60
2023/10/04 04:46:58;;;;;;;17.00;5.63;;;;;;;17.54;100.00;102075.25;2066624;28;20463;-60
2023/10/04 04:48:00;;;;;;;9.13;5.17;;;;;;;16.88;100.00;102010.69;2067228;28;20660;-60
2023/10/04 04:49:01;;;;;;;19.40;4.57;;;;;;;17.16;100.00;102086.31;2066155;28;21433;-59